• Join FlightAware (Why Join?)
  • Login
  • US Flag 
03:56AM EDT


 

Airport Tracker/Info


-or-


 

Live Flight TrackerFlight Track Log ✈ ASQ5941 ✈ 30-Aug-2013 ✈ KAVP - KMKE

Flight Track Log - Related Links

Times and Time Zones

All times are in EDT time to prevent confusion due to time zone crossing. See the ASQ5941 flight status page for this flight to view local times or setup timezone preferences in your user account.

Time Position Orientation Groundspeed Altitude Reporting Facility
EDT Latitude Longitude Course Direction KTS MPH feet Rate Location/Type
05:15PM 41.2631 -75.7972 220° Southwest 185 213 4,200  Level New York Center
05:16PM 41.3069 -75.8392 324° Northwest 117 135 5,700 1,740 Climbing New York Center
05:17PM 41.3820 -75.8640 304° West  Level FlightAware Approximate
05:17PM 41.3628 -75.8986 321° Northwest 160 184 7,700  Level New York Center
05:18PM 41.4321 -75.9484 315° West  Level FlightAware Approximate
05:18PM 41.4139 -75.9689 314° West 225 259 9,600  Level New York Center
05:19PM 41.4823 -76.0375 315° West  Level FlightAware Approximate
05:19PM 41.4597 -76.0636 303° West 268 308 11,200  Level New York Center
05:20PM 41.5401 -76.1185 312° West  Level FlightAware Approximate
05:20PM 41.5072 -76.1617 303° West 300 345 11,700  Level New York Center
05:21PM 41.5589 -76.2656 304° West 330 380 12,600 900 Climbing New York Center
05:23PM 41.6672 -76.4856 303° West 356 410 14,500 960 Climbing New York Center
05:24PM 41.7200 -76.5986 302° West 362 417 15,500 900 Climbing New York Center
05:25PM 41.7711 -76.7003 304° West 362 417 16,300 960 Climbing New York Center
05:27PM 41.8881 -76.9569 302° West 355 409 18,700 1,020 Climbing Cleveland Center
05:28PM 41.9233 -77.0806 291° West 355 409 19,700 900 Climbing Cleveland Center
05:29PM 41.9561 -77.1989 290° West 355 409 20,600 900 Climbing Cleveland Center
05:30PM 41.9867 -77.3175 289° West 344 396 21,600 960 Climbing Cleveland Center
05:31PM 42.0169 -77.4333 289° West 334 384 22,600 960 Climbing Cleveland Center
05:32PM 42.0469 -77.5436 290° West 328 377 23,600 960 Climbing Cleveland Center
05:33PM 42.0894 -77.6536 298° West 328 377 24,600 960 Climbing Cleveland Center
05:34PM 42.1381 -77.7606 302° West 333 383 25,600 960 Climbing Cleveland Center
05:35PM 42.1681 -77.8825 288° West 338 389 26,600 960 Climbing Cleveland Center
05:36PM 42.1958 -77.9989 288° West 338 389 27,600 960 Climbing Cleveland Center
05:37PM 42.2233 -78.1214 287° West 338 389 28,600 960 Climbing Cleveland Center
05:38PM 42.2531 -78.2436 288° West 338 389 29,600 900 Climbing Cleveland Center
05:39PM 42.2781 -78.3494 288° West 338 389 30,400 840 Climbing Cleveland Center
05:40PM 42.3075 -78.4719 288° West 338 389 31,300 900 Climbing Cleveland Center
05:41PM 42.3347 -78.5944 287° West 338 389 32,300 960 Climbing Cleveland Center
05:42PM 42.3639 -78.7172 288° West 338 389 33,300 960 Climbing Cleveland Center
05:43PM 42.3908 -78.8375 287° West 338 389 34,300 900 Climbing Cleveland Center
05:44PM 42.4156 -78.9578 286° West 338 389 35,200 840 Climbing Cleveland Center
05:45PM 42.4442 -79.0722 289° West 338 389 36,000 360 Climbing Cleveland Center
05:46PM 42.4728 -79.1956 287° West 338 389 36,000  Level Cleveland Center
05:47PM 42.4950 -79.3272 283° West 345 397 36,000  Level Cleveland Center
05:48PM 42.5028 -79.4708 274° West 364 419 36,000  Level Cleveland Center
05:49PM 42.4853 -79.6147 261° West 378 435 36,000  Level Cleveland Center
05:50PM 42.4219 -79.7647 240° Southwest 419 482 36,000  Level Cleveland Center
05:51PM 42.3622 -79.9003 239° Southwest 414 476 36,000  Level Cleveland Center
05:52PM 42.3067 -80.0328 240° Southwest 414 476 36,000  Level Cleveland Center
05:53PM 42.2489 -80.1681 240° Southwest 414 476 36,000  Level Cleveland Center
05:54PM 42.1911 -80.3000 239° Southwest 414 476 36,000  Level Cleveland Center
05:55PM 42.1328 -80.4319 239° Southwest 414 476 36,000  Level Cleveland Center
05:56PM 42.0725 -80.5692 239° Southwest 422 486 36,000  Level Cleveland Center
05:57PM 42.0225 -80.6867 240° Southwest 417 480 36,000  Level Cleveland Center
05:58PM 41.9617 -80.8206 239° Southwest 417 480 36,000  Level Cleveland Center
05:59PM 41.9031 -80.9514 239° Southwest 422 486 36,000  Level Cleveland Center
06:00PM 41.8442 -81.0847 239° Southwest 422 486 36,000  Level Cleveland Center
06:01PM 41.7853 -81.2208 240° Southwest 422 486 36,000  Level Cleveland Center
06:02PM 41.7261 -81.3539 239° Southwest 422 486 36,000  Level Cleveland Center
06:03PM 41.6667 -81.4864 239° Southwest 417 480 36,000  Level Cleveland Center
06:04PM 41.6092 -81.6161 239° Southwest 423 487 36,000  Level Cleveland Center
06:05PM 41.5744 -81.7600 252° West 403 464 36,000  Level Cleveland Center
06:06PM 41.5522 -81.9039 258° West 398 458 36,000  Level Cleveland Center
06:07PM 41.5317 -82.0506 259° West 403 464 36,000  Level Cleveland Center
06:08PM 41.5064 -82.2053 258° West 403 464 36,000  Level Cleveland Center
06:09PM 41.4856 -82.3517 259° West 403 464 36,000  Level Cleveland Center
06:10PM 41.4644 -82.4950 259° West 403 464 36,000  Level Cleveland Center
06:11PM 41.4433 -82.6358 259° West 403 464 36,000  Level Cleveland Center
06:12PM 41.4219 -82.7792 259° West 398 458 36,000  Level Cleveland Center
06:13PM 41.4044 -82.9253 261° West 398 458 36,000  Level Cleveland Center
06:14PM 41.3847 -83.0683 260° West 403 464 36,000  Level Cleveland Center
06:15PM 41.3628 -83.2142 259° West 403 464 36,000  Level Cleveland Center
06:16PM 41.3592 -83.3581 268° West 403 464 36,000 -60 Level Cleveland Center
06:17PM 41.3578 -83.5044 269° West 403 464 35,900 -360 Descending Cleveland Center
06:18PM 41.3539 -83.6511 268° West 403 464 35,300 -720 Descending Cleveland Center
06:19PM 41.3519 -83.7947 269° West 403 464 34,500 -780 Descending Cleveland Center
06:20PM 41.3500 -83.9028 269° West 389 448 34,000 -300 Descending Chicago Center
06:21PM 41.3492 -84.0417 270° West 381 438 34,000  Level Chicago Center
06:22PM 41.3436 -84.1828 267° West 380 437 34,000  Level Chicago Center
06:23PM 41.3125 -84.3231 254° West 387 445 34,000  Level Chicago Center
06:24PM 41.2772 -84.4603 251° West 393 452 34,000  Level Chicago Center
06:25PM 41.2378 -84.6225 252° West 387 445 34,000  Level Chicago Center
06:26PM 41.1806 -84.7175 231° Southwest 359 413 34,000  Level Chicago Center
06:27PM 41.0883 -84.6753 161° South 375 432 34,000  Level Chicago Center
06:28PM 41.0906 -84.5350 89° East 400 460 34,000  Level Chicago Center
06:30PM 41.1256 -84.3944 72° East 403 464 34,000  Level Chicago Center
06:31PM 41.1617 -84.2514 71° East 408 470 34,000  Level Chicago Center
06:32PM 41.2606 -84.1744 30° Northeast 394 453 34,000  Level Chicago Center
06:33PM 41.3183 -84.2550 314° West 333 383 34,000  Level Chicago Center
06:34PM 41.3000 -84.3717 258° West 324 373 34,000  Level Chicago Center
06:35PM 41.2719 -84.4853 252° West 326 375 34,000  Level Chicago Center
06:36PM 41.2428 -84.6000 251° West 326 375 34,000  Level Chicago Center
06:37PM 41.1969 -84.7067 240° Southwest 345 397 34,000  Level Chicago Center
06:38PM 41.0822 -84.6756 168° South 397 457 34,000  Level Chicago Center
06:39PM 41.0831 -84.5325 90° East 401 461 34,000  Level Chicago Center
06:40PM 41.1175 -84.3903 72° East 407 468 34,000  Level Chicago Center
06:41PM 41.1542 -84.2472 71° East 410 472 34,000  Level Chicago Center
06:42PM 41.2314 -84.1636 39° Northeast 393 452 34,000  Level Chicago Center
06:43PM 41.3169 -84.2350 328° Northwest 334 384 34,000  Level Chicago Center
06:44PM 41.3053 -84.3514 262° West 319 367 34,000  Level Chicago Center
06:45PM 41.2761 -84.4672 252° West 328 377 34,000  Level Chicago Center
06:46PM 41.2475 -84.5828 252° West 328 377 34,000  Level Chicago Center
06:47PM 41.2089 -84.6939 245° Southwest 336 387 34,000  Level Chicago Center
06:48PM 41.1103 -84.7094 187° South 384 442 34,000  Level Chicago Center
06:49PM 41.0772 -84.5531 106° East 405 466 34,000  Level Chicago Center
06:50PM 41.1125 -84.4117 72° East 404 465 34,000  Level Chicago Center
06:51PM 41.1475 -84.2717 72° East 404 465 34,000  Level Chicago Center
06:52PM 41.2156 -84.1669 49° Northeast 390 449 34,000  Level Chicago Center
06:53PM 41.3003 -84.2017 343° North 342 394 34,000  Level Chicago Center
06:54PM 41.3153 -84.3133 280° West 322 371 34,000  Level Chicago Center
06:55PM 41.2797 -84.4508 251° West 328 377 34,000  Level Chicago Center
06:56PM 41.2511 -84.5672 252° West 331 381 34,000  Level Chicago Center
06:57PM 41.2211 -84.6850 251° West 335 386 34,000  Level Chicago Center
06:58PM 41.1900 -84.8036 251° West 338 389 34,000 -300 Level Chicago Center
07:00PM 41.1850 -84.9253 267° West 339 390 33,400 -780 Descending Chicago Center
07:01PM 41.2522 -85.0236 312° West 364 419 32,400 -720 Descending Chicago Center
07:02PM 41.3719 -85.0900 337° Northwest 391 450 32,000 -240 Descending Chicago Center
07:03PM 41.4725 -85.1411 339° North 390 449 32,000  Level Chicago Center
07:04PM 41.5742 -85.1931 339° North 394 453 32,000  Level Chicago Center
07:05PM 41.6764 -85.2447 339° North 401 461 32,000 -480 Level Chicago Center
07:06PM 41.7647 -85.3331 323° Northwest 406 467 31,100 -1,800 Descending Chicago Center
07:07PM 41.8664 -85.4481 320° Northwest 405 466 28,300 -2,880 Descending Chicago Center
07:08PM 41.9511 -85.5494 318° Northwest 409 471 25,200 -2,100 Descending Chicago Center
07:09PM 41.9775 -85.6911 284° West 397 457 24,000 -600 Descending Chicago Center
07:10PM 42.0172 -85.8483 289° West 400 460 24,000  Level Chicago Center
07:11PM 42.0625 -85.9775 295° West 383 441 24,000 -1,080 Level Chicago Center
07:12PM 42.1036 -86.1075 293° West 359 413 21,800 -2,340 Descending Chicago Center
07:13PM 42.1339 -86.2300 288° West 348 400 19,300 -2,520 Descending Chicago Center
07:14PM 42.1606 -86.3500 287° West 338 389 16,700 -1,680 Descending Chicago Center
07:15PM 42.2044 -86.4500 301° West 311 358 15,900 -360 Descending Chicago Center
07:16PM 42.2644 -86.5306 315° West 307 353 16,000  Climbing Chicago Center
07:17PM 42.3544 -86.5778 339° North 305 351 16,000  Level Chicago Center
07:18PM 42.4311 -86.6111 342° North 291 335 16,000  Level Chicago Center
07:19PM 42.5069 -86.6539 337° Northwest 294 338 16,000 -300 Level Chicago Center
07:20PM 42.5803 -86.7072 332° Northwest 300 345 15,400 -960 Descending Chicago Center
07:21PM 42.6239 -86.7906 305° West 300 345 14,100 -1,440 Descending Chicago Center
07:22PM 42.6381 -86.9003 280° West 300 345 12,500 -1,740 Descending Chicago Center
07:23PM 42.6514 -87.0092 279° West 293 337 10,600 -1,260 Descending Chicago Center
07:24PM 42.6672 -87.1156 281° West 288 331 10,000 -300 Descending Chicago Center
07:25PM 42.6822 -87.2381 279° West 278 320 10,000  Level Chicago Center
07:26PM 42.6981 -87.3450 281° West 288 331 10,000 -180 Level Chicago Center
07:27PM 42.7656 -87.3936 332° Northwest 286 329 9,700 -1,080 Descending Chicago Center
07:28PM 42.8403 -87.4283 341° North 284 327 7,900 -1,320 Descending Chicago Center
07:29PM 42.9067 -87.4622 340° North 264 304 7,100 -720 Descending Chicago Center
07:30PM 42.9756 -87.4942 341° North 234 269 6,500 -1,140 Descending Chicago Center
07:31PM 43.0319 -87.5281 336° Northwest 224 258 4,800 -1,680 Descending Chicago Center
07:32PM 43.0128 -87.6097 252° West 223 257 3,100 -1,140 Descending Chicago Center
07:33PM 42.9919 -87.6919 251° West 229 264 2,500 -300 Descending Chicago Center
07:34PM 42.9767 -87.7647 254° West 213 245 2,500 -360 Level Chicago Center
07:36PM 42.9617 -87.8253 251° West 189 217 1,800 -600 Descending Chicago Center
07:37PM 42.9478 -87.8794 251° West 176 203 1,300 -540 Descending Chicago Center
07:39PM 42.9333 -87.8833 248° West  Level FlightAware Approximate